Time;durP1;ratioP1;P1;durP2;ratioP2;P2;SDS_P1;SDS_P2;PMS_P1;PMS_P2;Temp;Humidity;BMP_temperature;BMP_pressure;BME280_temperature;BME280_humidity;BME280_pressure;Samples;Min_cycle;Max_cycle;Signal;HPM_P1;HPM_P2
2022/09/11 00:00:52;;;;;;;6.82;4.00;;;;;;;25.67;56.68;99273.31;5053269;28;20024;-37
2022/09/11 00:03:19;;;;;;;6.85;4.10;;;;;;;25.61;56.45;99269.94;5052951;28;20103;-37
2022/09/11 00:05:45;;;;;;;7.60;4.13;;;;;;;25.61;56.18;99261.75;5052977;28;20418;-37
2022/09/11 00:08:12;;;;;;;8.55;4.22;;;;;;;25.32;57.18;99259.53;5052838;28;20718;-38
2022/09/11 00:10:40;;;;;;;8.00;4.40;;;;;;;25.47;56.91;99267.31;5052988;28;20105;-37
2022/09/11 00:13:26;;;;;;;8.20;4.20;;;;;;;25.60;56.64;99272.97;5053121;28;20078;-37
2022/09/11 00:15:51;;;;;;;6.70;4.25;;;;;;;25.50;56.88;99276.78;5053113;28;20040;-37
2022/09/11 00:18:22;;;;;;;5.10;3.83;;;;;;;25.68;56.05;99275.75;5052817;28;20064;-37
2022/09/11 00:20:51;;;;;;;8.45;4.22;;;;;;;25.61;56.23;99277.28;5052627;28;20024;-37
2022/09/11 00:23:18;;;;;;;6.03;4.07;;;;;;;25.22;57.18;99278.84;5052059;28;20017;-38
2022/09/11 00:25:45;;;;;;;7.32;4.38;;;;;;;25.31;56.81;99269.63;5052252;28;20029;-37
2022/09/11 00:28:15;;;;;;;7.55;4.10;;;;;;;25.26;57.22;99269.75;5053399;28;20051;-37
2022/09/11 00:30:45;;;;;;;6.60;3.95;;;;;;;25.24;56.92;99272.00;5053033;28;20059;-37
2022/09/11 00:33:12;;;;;;;6.82;4.40;;;;;;;25.36;56.65;99272.25;5053506;28;20032;-37
2022/09/11 00:35:38;;;;;;;5.53;4.05;;;;;;;25.42;56.53;99269.34;5053321;28;20024;-37
2022/09/11 00:38:04;;;;;;;7.72;4.60;;;;;;;25.34;56.83;99271.75;5053248;28;20025;-37
2022/09/11 00:40:30;;;;;;;5.75;3.97;;;;;;;25.39;56.12;99267.28;5052963;28;20082;-37
2022/09/11 00:42:56;;;;;;;7.63;4.28;;;;;;;25.07;57.38;99271.88;5052888;28;20021;-37
2022/09/11 00:45:25;;;;;;;7.85;4.10;;;;;;;25.11;57.32;99268.25;5053280;28;20040;-37
2022/09/11 00:47:57;;;;;;;6.50;4.05;;;;;;;25.12;57.16;99266.31;5053195;28;20028;-37
2022/09/11 00:50:25;;;;;;;8.18;4.30;;;;;;;25.18;56.85;99260.41;5053028;28;20029;-37
2022/09/11 00:53:04;;;;;;;6.80;4.30;;;;;;;25.21;57.23;99259.00;5052504;28;20048;-37
2022/09/11 00:55:34;;;;;;;7.93;4.10;;;;;;;24.93;57.83;99267.31;5052685;28;20029;-37
2022/09/11 00:58:14;;;;;;;7.88;4.20;;;;;;;25.02;57.42;99256.50;5052710;28;20095;-38
2022/09/11 01:00:41;;;;;;;;;;;;;;;25.14;56.87;99255.91;5053295;28;20513;-45
2022/09/11 01:03:07;;;;;;;6.25;3.60;;;;;;;25.03;57.11;99254.56;5067308;28;19909;-45
2022/09/11 01:05:35;;;;;;;6.60;3.88;;;;;;;25.18;56.52;99251.44;5072823;28;20027;-45
2022/09/11 01:08:02;;;;;;;6.35;4.05;;;;;;;24.89;57.39;99257.38;5072535;28;20508;-43
2022/09/11 01:11:18;;;;;;;6.10;4.00;;;;;;;24.72;58.03;99252.63;5072308;28;20052;-44
2022/09/11 01:14:15;;;;;;;6.32;4.13;;;;;;;24.97;57.33;99257.41;5059731;28;20040;-46
2022/09/11 01:16:50;;;;;;;7.90;4.35;;;;;;;25.04;57.16;99248.03;5072170;28;20024;-43
2022/09/11 01:20:00;;;;;;;7.63;4.10;;;;;;;24.73;58.06;99244.16;5072132;28;20158;-43
2022/09/11 01:22:40;;;;;;;6.72;4.50;;;;;;;24.77;57.86;99242.41;5071825;28;20036;-45
2022/09/11 01:25:26;;;;;;;7.53;4.25;;;;;;;24.86;57.57;99242.44;5064941;28;20053;-46
2022/09/11 01:27:55;;;;;;;7.85;4.20;;;;;;;25.01;57.00;99244.00;5052127;28;20029;-43
2022/09/11 01:30:29;;;;;;;6.78;4.20;;;;;;;24.67;57.96;99241.84;5052032;28;20029;-44
2022/09/11 01:33:19;;;;;;;7.20;4.18;;;;;;;24.66;57.92;99232.09;5051828;28;20056;-44
2022/09/11 01:36:08;;;;;;;6.90;4.27;;;;;;;24.64;57.67;99231.59;5051646;28;20461;-44
2022/09/11 01:38:39;;;;;;;5.95;4.10;;;;;;;24.98;56.83;99223.66;5051108;28;20467;-44
2022/09/11 01:41:14;;;;;;;6.80;4.47;;;;;;;24.74;57.03;99226.69;5051774;28;20032;-46
2022/09/11 01:43:50;;;;;;;7.18;4.30;;;;;;;24.60;57.68;99234.13;5051518;28;20028;-43
2022/09/11 01:46:21;;;;;;;5.65;4.40;;;;;;;24.66;57.47;99237.53;5051530;28;20028;-44
2022/09/11 01:48:51;;;;;;;7.85;4.47;;;;;;;24.68;57.15;99230.66;5051637;28;20063;-46
2022/09/11 01:51:23;;;;;;;6.35;4.22;;;;;;;25.22;55.53;99240.75;5050282;28;20029;-44
2022/09/11 01:53:52;;;;;;;7.72;4.70;;;;;;;24.88;56.34;99245.66;5051516;28;20361;-45
2022/09/11 01:56:22;;;;;;;5.53;4.18;;;;;;;24.68;56.96;99240.75;5051914;28;20032;-44
2022/09/11 01:58:54;;;;;;;10.50;4.32;;;;;;;24.53;57.32;99239.19;5052007;28;20063;-43
2022/09/11 02:01:24;;;;;;;8.20;4.65;;;;;;;24.71;56.92;99248.28;5051544;28;20032;-47
2022/09/11 02:04:09;;;;;;;5.65;4.18;;;;;;;24.53;57.57;99244.63;5071747;28;20032;-47
2022/09/11 02:07:06;;;;;;;6.05;4.43;;;;;;;24.83;56.75;99239.53;5071358;28;20400;-45
2022/09/11 02:09:39;;;;;;;6.38;4.35;;;;;;;24.47;57.49;99235.75;5057244;28;20040;-45
2022/09/11 02:12:08;;;;;;;7.90;4.50;;;;;;;24.20;58.62;99242.91;5071635;28;20036;-44
2022/09/11 02:14:47;;;;;;;7.68;4.53;;;;;;;24.25;58.63;99239.25;5070978;28;20035;-44
2022/09/11 02:17:27;;;;;;;7.43;4.53;;;;;;;24.24;58.41;99236.81;5070828;28;20056;-44
2022/09/11 02:19:57;;;;;;;7.47;4.63;;;;;;;24.77;57.02;99241.63;5071009;28;20037;-43
2022/09/11 02:22:24;;;;;;;8.15;4.40;;;;;;;24.54;57.88;99243.50;5050342;28;20093;-43
2022/09/11 02:24:51;;;;;;;5.75;4.70;;;;;;;24.23;58.86;99246.09;5050857;28;20432;-44
2022/09/11 02:27:21;;;;;;;5.30;4.32;;;;;;;24.32;58.78;99247.00;5048470;28;20059;-44
2022/09/11 02:29:47;;;;;;;7.97;4.78;;;;;;;24.35;58.73;99251.81;5049890;28;20083;-43
2022/09/11 02:32:13;;;;;;;6.32;4.45;;;;;;;24.24;59.32;99264.00;5050864;28;20025;-44
2022/09/11 02:34:40;;;;;;;7.57;4.97;;;;;;;24.36;58.74;99261.56;5050791;28;20073;-44
2022/09/11 02:37:12;;;;;;;11.27;5.20;;;;;;;23.95;60.05;99260.56;5051066;28;20027;-44
2022/09/11 02:40:06;;;;;;;7.97;4.90;;;;;;;23.86;60.70;99259.66;5050516;28;20020;-44
2022/09/11 02:42:36;;;;;;;6.25;4.75;;;;;;;23.79;60.90;99262.78;5051155;28;20036;-42
2022/09/11 02:45:21;;;;;;;6.80;4.90;;;;;;;24.27;59.18;99263.41;5049455;28;20432;-43
2022/09/11 02:47:57;;;;;;;7.03;4.95;;;;;;;23.77;60.92;99262.25;5050920;28;20059;-43
2022/09/11 02:50:58;;;;;;;7.20;4.72;;;;;;;23.84;60.73;99261.06;5050428;28;20440;-44
2022/09/11 02:53:52;;;;;;;7.95;4.75;;;;;;;23.87;60.54;99250.38;5049075;28;20494;-45
2022/09/11 02:56:34;;;;;;;7.25;4.70;;;;;;;23.81;60.70;99262.47;5049236;28;20123;-44
2022/09/11 02:59:09;;;;;;;6.93;4.70;;;;;;;23.66;61.01;99255.41;5050498;28;20032;-43
2022/09/11 03:01:50;;;;;;;6.80;4.85;;;;;;;23.47;61.64;99257.41;5051226;28;20033;-43
2022/09/11 03:04:17;;;;;;;6.30;4.72;;;;;;;23.26;62.20;99257.78;5070743;28;20020;-44
2022/09/11 03:06:43;;;;;;;7.75;4.85;;;;;;;23.35;61.69;99256.00;5070363;28;20086;-44
2022/09/11 03:09:09;;;;;;;9.35;4.90;;;;;;;22.92;62.67;99249.94;5069359;28;20028;-44
2022/09/11 03:11:34;;;;;;;8.73;5.18;;;;;;;23.25;62.18;99256.19;5070233;28;20116;-44
2022/09/11 03:14:00;;;;;;;8.80;5.25;;;;;;;23.34;61.20;99251.69;5070295;28;20086;-47
2022/09/11 03:16:26;;;;;;;7.22;4.57;;;;;;;23.30;61.02;99269.66;5070424;28;20031;-43
2022/09/11 03:18:51;;;;;;;10.38;5.05;;;;;;;23.22;61.03;99262.22;5070390;28;20135;-46
2022/09/11 03:21:16;;;;;;;5.72;4.78;;;;;;;23.38;60.69;99263.56;5070029;28;20430;-42
2022/09/11 03:23:42;;;;;;;6.18;4.70;;;;;;;23.36;60.40;99256.78;5070245;28;20092;-45
2022/09/11 03:26:08;;;;;;;9.05;4.88;;;;;;;23.65;59.40;99261.16;5070632;28;20032;-43
2022/09/11 03:28:33;;;;;;;8.35;4.88;;;;;;;23.60;59.25;99256.63;5070105;28;20029;-44
2022/09/11 03:30:59;;;;;;;5.15;4.40;;;;;;;23.62;59.16;99263.34;5070385;28;20120;-43
2022/09/11 03:33:25;;;;;;;7.75;4.57;;;;;;;23.31;59.81;99262.34;5069861;28;20081;-46
2022/09/11 03:35:50;;;;;;;8.07;4.70;;;;;;;23.25;59.98;99258.09;5070315;28;20013;-43
2022/09/11 03:38:16;;;;;;;6.20;4.47;;;;;;;23.51;59.29;99266.56;5070281;28;20081;-43
2022/09/11 03:40:43;;;;;;;5.80;4.22;;;;;;;23.62;58.78;99265.25;5070168;28;20412;-44
2022/09/11 03:43:09;;;;;;;8.68;4.55;;;;;;;23.86;57.65;99267.03;5069584;28;20032;-47
2022/09/11 03:45:34;;;;;;;6.78;4.38;;;;;;;23.73;58.03;99269.41;5070308;28;20425;-46
2022/09/11 03:48:01;;;;;;;5.75;4.40;;;;;;;23.57;57.99;99273.50;5070346;28;20396;-45
2022/09/11 03:50:26;;;;;;;9.07;4.45;;;;;;;23.45;58.11;99251.50;5070288;28;20025;-45
2022/09/11 03:52:52;;;;;;;4.95;4.03;;;;;;;23.73;57.54;99272.09;5069791;28;20085;-43
2022/09/11 03:55:18;;;;;;;7.57;4.28;;;;;;;23.89;56.76;99266.41;5070144;28;20074;-45
2022/09/11 03:57:43;;;;;;;8.50;4.47;;;;;;;23.62;57.47;99273.41;5069714;28;20586;-44
2022/09/11 04:00:10;;;;;;;6.20;3.90;;;;;;;23.61;57.60;99275.34;5069510;28;20027;-43
2022/09/11 04:02:35;;;;;;;6.55;4.20;;;;;;;23.69;57.46;99271.09;5062591;28;20028;-44
2022/09/11 04:05:02;;;;;;;6.35;4.25;;;;;;;23.87;56.86;99271.34;5073747;28;20024;-45
2022/09/11 04:07:30;;;;;;;6.93;4.20;;;;;;;24.11;55.78;99288.22;5073328;28;20041;-44
2022/09/11 04:09:56;;;;;;;5.50;4.15;;;;;;;23.84;56.74;99288.22;5073311;28;20472;-42
2022/09/11 04:12:21;;;;;;;5.38;3.95;;;;;;;23.92;56.57;99279.38;5073570;28;20032;-43
2022/09/11 04:14:49;;;;;;;7.82;4.07;;;;;;;23.70;57.17;99289.00;5073142;28;20052;-44
2022/09/11 04:17:15;;;;;;;11.48;5.75;;;;;;;24.00;56.49;99289.53;5073827;28;20036;-42
2022/09/11 04:19:40;;;;;;;18.02;13.20;;;;;;;24.08;56.29;99286.09;5073377;28;20056;-44
2022/09/11 04:22:06;;;;;;;12.50;9.40;;;;;;;24.03;56.24;99288.94;5073288;28;20082;-43
2022/09/11 04:24:31;;;;;;;11.70;7.68;;;;;;;24.22;55.69;99282.53;5072671;28;20047;-43
2022/09/11 04:26:59;;;;;;;8.80;5.57;;;;;;;24.49;54.97;99292.56;5073319;28;20024;-43
2022/09/11 04:29:25;;;;;;;8.43;4.90;;;;;;;24.64;54.86;99286.81;5073522;28;20043;-44
2022/09/11 04:31:50;;;;;;;7.53;4.50;;;;;;;24.80;54.08;99287.22;5073021;28;20031;-44
2022/09/11 04:34:16;;;;;;;17.95;11.55;;;;;;;24.87;54.18;99281.38;5072910;28;20025;-43
2022/09/11 04:36:42;;;;;;;24.83;21.42;;;;;;;24.83;54.26;99283.91;5072907;28;20404;-44
2022/09/11 04:39:08;;;;;;;8.48;5.60;;;;;;;25.12;53.55;99288.88;5072974;28;20021;-44
2022/09/11 04:41:33;;;;;;;13.73;7.88;;;;;;;25.25;53.07;99276.34;5072890;28;20524;-44
2022/09/11 04:43:59;;;;;;;10.30;4.72;;;;;;;25.42;52.46;99277.53;5072929;28;20033;-44
2022/09/11 04:46:25;;;;;;;5.65;4.10;;;;;;;25.27;52.68;99279.56;5072718;28;20040;-42
2022/09/11 04:48:54;;;;;;;9.00;4.10;;;;;;;25.21;52.94;99279.94;5072832;28;20025;-44
2022/09/11 04:51:26;;;;;;;7.03;4.30;;;;;;;25.50;51.99;99287.69;5073014;28;20032;-44
2022/09/11 04:53:59;;;;;;;8.52;3.63;;;;;;;26.10;50.46;99292.56;5073003;28;20066;-44
2022/09/11 04:56:29;;;;;;;7.45;3.80;;;;;;;26.19;50.04;99289.81;5072620;28;20032;-45
2022/09/11 04:59:00;;;;;;;6.90;3.92;;;;;;;26.32;49.69;99285.34;5072895;28;20032;-43
2022/09/11 05:01:28;;;;;;;7.40;3.85;;;;;;;26.37;49.06;99287.09;5062601;28;20036;-42
2022/09/11 05:03:55;;;;;;;9.35;3.80;;;;;;;26.54;49.02;99292.59;5072444;28;20066;-43
2022/09/11 05:06:21;;;;;;;7.05;3.92;;;;;;;26.97;48.01;99291.78;5072459;28;20082;-44
2022/09/11 05:08:47;;;;;;;20.65;15.13;;;;;;;26.84;48.51;99290.81;5072246;28;20095;-45
2022/09/11 05:11:15;;;;;;;11.52;5.20;;;;;;;27.00;47.71;99288.41;5063256;28;20507;-47
2022/09/11 05:13:42;;;;;;;5.50;3.88;;;;;;;27.00;47.90;99276.69;5050938;28;20040;-43
2022/09/11 05:16:10;;;;;;;7.03;4.88;;;;;;;27.14;47.76;99298.34;5052436;28;20032;-44
2022/09/11 05:18:36;;;;;;;7.80;5.53;;;;;;;27.91;45.71;99295.69;5051748;28;20701;-44
2022/09/11 05:21:07;;;;;;;7.95;4.20;;;;;;;27.34;47.04;99302.31;5052423;28;20060;-42
2022/09/11 05:23:33;;;;;;;9.23;3.80;;;;;;;27.80;46.22;99289.78;5052116;28;20056;-44
2022/09/11 05:26:00;;;;;;;10.30;3.92;;;;;;;28.08;45.33;99284.63;5050899;28;20060;-43
2022/09/11 05:28:27;;;;;;;6.53;3.55;;;;;;;28.43;44.35;99287.16;5050999;28;20031;-43
2022/09/11 05:30:54;;;;;;;8.02;3.72;;;;;;;28.79;44.07;99296.69;5051356;28;20033;-44
2022/09/11 05:33:22;;;;;;;6.15;3.67;;;;;;;28.66;43.63;99287.63;5032268;28;20025;-44
2022/09/11 05:35:52;;;;;;;5.82;3.80;;;;;;;28.72;43.19;99296.44;5038764;28;20481;-44
2022/09/11 05:38:18;;;;;;;7.03;3.70;;;;;;;28.79;42.64;99283.00;5051297;28;20516;-42
2022/09/11 05:40:47;;;;;;;8.50;4.82;;;;;;;28.51;42.60;99288.22;5051101;28;20107;-43
2022/09/11 05:43:14;;;;;;;6.38;3.80;;;;;;;28.29;43.37;99290.13;5051378;28;20036;-42
2022/09/11 05:45:44;;;;;;;6.88;3.50;;;;;;;28.47;43.05;99291.59;5051160;28;20527;-46
2022/09/11 05:48:10;;;;;;;9.57;3.70;;;;;;;28.93;42.21;99290.94;5051416;28;20056;-43
2022/09/11 05:50:37;;;;;;;6.78;3.83;;;;;;;29.50;41.49;99286.63;5049918;28;20051;-46
2022/09/11 05:53:04;;;;;;;8.35;3.72;;;;;;;29.95;40.50;99282.97;5049387;28;20409;-47
2022/09/11 05:55:33;;;;;;;8.07;4.35;;;;;;;30.71;39.07;99295.09;5050204;28;20032;-45
2022/09/11 05:57:59;;;;;;;7.00;3.80;;;;;;;30.45;38.80;99297.47;5050507;28;20028;-44
2022/09/11 06:00:24;;;;;;;7.15;3.38;;;;;;;30.26;38.78;99282.38;5050351;28;20024;-46
2022/09/11 06:02:53;;;;;;;6.15;3.40;;;;;;;30.11;39.24;99286.63;5049829;28;20017;-43
2022/09/11 06:05:18;;;;;;;;;;;;;;;30.36;38.23;99289.34;5050868;28;20100;-43
2022/09/11 06:07:44;;;;;;;5.28;3.60;;;;;;;30.84;37.30;99293.06;5050598;28;20408;-44
2022/09/11 06:10:09;;;;;;;6.80;3.50;;;;;;;30.58;37.21;99288.84;5050677;28;20017;-42
2022/09/11 06:12:35;;;;;;;6.43;4.00;;;;;;;30.05;38.10;99288.00;5050270;28;20104;-42
2022/09/11 06:15:00;;;;;;;7.60;3.50;;;;;;;30.09;37.62;99293.63;5050477;28;20426;-42
2022/09/11 06:17:27;;;;;;;6.90;3.45;;;;;;;30.15;37.42;99286.75;5050087;28;20037;-43
2022/09/11 06:19:53;;;;;;;11.25;3.50;;;;;;;30.11;37.15;99297.59;5050346;28;20029;-42
2022/09/11 06:22:20;;;;;;;21.55;15.23;;;;;;;30.53;37.20;99293.75;5050157;28;20059;-42
2022/09/11 06:24:46;;;;;;;6.47;3.40;;;;;;;30.27;37.67;99294.94;5049708;28;20029;-43
2022/09/11 06:27:12;;;;;;;6.20;3.65;;;;;;;30.86;36.54;99306.44;5050278;28;20032;-45
2022/09/11 06:29:37;;;;;;;6.10;3.40;;;;;;;31.22;35.93;99302.75;5050572;28;20062;-44
2022/09/11 06:32:03;;;;;;;7.88;3.30;;;;;;;31.51;34.68;99304.31;5050342;28;20337;-43
2022/09/11 06:34:30;;;;;;;4.15;3.35;;;;;;;31.48;34.94;99302.25;5049849;28;20404;-44
2022/09/11 06:36:55;;;;;;;7.28;3.08;;;;;;;31.71;34.53;99296.94;5050024;28;20100;-43
2022/09/11 06:39:24;;;;;;;5.97;3.10;;;;;;;31.94;34.20;99293.53;5049753;28;20068;-45
2022/09/11 06:41:50;;;;;;;;;;;;;;;31.52;34.74;99299.59;5049234;28;20450;-43
2022/09/11 06:44:16;;;;;;;8.02;2.75;;;;;;;31.88;34.10;99297.72;5049641;28;19982;-46
2022/09/11 06:46:41;;;;;;;6.18;2.80;;;;;;;31.75;34.31;99299.75;5049547;28;20064;-45
2022/09/11 06:49:07;;;;;;;6.10;2.70;;;;;;;31.81;33.95;99305.78;5050239;28;20049;-46
2022/09/11 06:51:33;;;;;;;7.50;3.38;;;;;;;31.81;34.39;99303.03;5050335;28;20528;-44
2022/09/11 06:54:01;;;;;;;5.28;3.00;;;;;;;32.16;33.55;99300.34;5049877;28;20408;-43
2022/09/11 06:56:28;;;;;;;5.35;2.58;;;;;;;32.46;32.43;99297.03;5050213;28;20392;-45
2022/09/11 06:58:53;;;;;;;8.73;5.57;;;;;;;32.34;32.47;99300.72;5050008;28;20032;-44
2022/09/11 07:01:21;;;;;;;5.70;3.60;;;;;;;32.33;32.01;99302.69;5049745;28;20029;-42
2022/09/11 07:03:52;;;;;;;6.38;3.20;;;;;;;32.13;32.36;99301.84;5049687;28;20056;-44
2022/09/11 07:06:29;;;;;;;6.10;2.65;;;;;;;32.34;31.95;99303.47;5049571;28;20346;-43
2022/09/11 07:09:01;;;;;;;3.03;2.40;;;;;;;33.02;30.71;99301.34;5049665;28;20056;-47
2022/09/11 07:11:31;;;;;;;8.75;2.70;;;;;;;33.05;30.92;99301.41;5049828;28;20025;-44
2022/09/11 07:13:57;;;;;;;7.15;2.63;;;;;;;33.10;30.85;99306.63;5050014;28;20397;-47
2022/09/11 07:16:24;;;;;;;6.10;2.95;;;;;;;33.51;30.66;99314.44;5049559;28;20040;-47
2022/09/11 07:18:50;;;;;;;5.05;2.60;;;;;;;33.94;29.97;99309.63;5049469;28;20052;-45
2022/09/11 07:21:17;;;;;;;4.60;2.80;;;;;;;34.38;28.99;99308.28;5049451;28;20021;-42
2022/09/11 07:23:47;;;;;;;6.90;2.63;;;;;;;34.67;29.15;99306.69;5049455;28;20021;-42
2022/09/11 07:26:12;;;;;;;4.05;2.70;;;;;;;34.28;29.70;99318.81;5049158;28;20029;-42
2022/09/11 07:28:39;;;;;;;6.40;2.90;;;;;;;32.62;31.37;99321.81;5049786;28;20025;-44
2022/09/11 07:31:10;;;;;;;6.43;2.55;;;;;;;32.52;31.44;99312.94;5050056;28;20021;-44
2022/09/11 07:33:37;;;;;;;5.28;2.63;;;;;;;32.96;31.06;99314.59;5049409;28;20028;-43
2022/09/11 07:36:11;;;;;;;5.38;2.70;;;;;;;32.65;31.20;99312.81;5049877;28;20420;-43
2022/09/11 07:38:40;;;;;;;4.43;2.60;;;;;;;32.63;31.70;99315.91;5052140;28;20033;-43
2022/09/11 07:41:07;;;;;;;3.13;2.60;;;;;;;33.27;30.78;99313.63;5050013;28;20566;-43
2022/09/11 07:43:34;;;;;;;4.82;2.60;;;;;;;33.68;30.42;99318.66;5057908;28;20499;-43
2022/09/11 07:46:00;;;;;;;6.57;2.55;;;;;;;34.06;29.34;99312.19;5053412;28;20025;-43
2022/09/11 07:48:25;;;;;;;3.13;2.60;;;;;;;34.15;29.40;99320.16;5053102;28;20600;-43
2022/09/11 07:51:11;;;;;;;5.32;2.67;;;;;;;34.06;29.33;99322.41;5053593;28;20017;-44
2022/09/11 07:53:45;;;;;;;4.03;2.42;;;;;;;33.85;29.39;99317.34;5051584;28;20025;-44
2022/09/11 07:56:14;;;;;;;8.52;2.40;;;;;;;33.85;29.04;99320.94;5051222;28;20070;-45
2022/09/11 07:58:41;;;;;;;4.35;2.10;;;;;;;34.40;28.26;99326.06;5053044;28;20107;-43
2022/09/11 08:01:15;;;;;;;5.78;2.65;;;;;;;33.94;28.89;99303.31;5052741;28;20021;-44
2022/09/11 08:03:42;;;;;;;3.90;2.35;;;;;;;33.52;29.25;99310.50;5072248;28;20029;-47
2022/09/11 08:06:13;;;;;;;8.07;2.70;;;;;;;32.31;30.42;99316.03;5073134;28;20036;-46
2022/09/11 08:08:39;;;;;;;5.25;2.50;;;;;;;32.78;29.84;99311.50;5072542;28;20028;-44
2022/09/11 08:11:14;;;;;;;5.38;2.53;;;;;;;33.05;29.48;99320.69;5072976;28;20036;-44
2022/09/11 08:13:40;;;;;;;5.57;2.90;;;;;;;32.01;30.49;99317.66;5072927;28;20380;-42
2022/09/11 08:16:06;;;;;;;5.20;2.75;;;;;;;32.08;31.03;99312.34;5072810;28;20445;-46
2022/09/11 08:18:33;;;;;;;4.32;2.60;;;;;;;33.01;30.23;99313.50;5072718;28;20049;-45
2022/09/11 08:21:10;;;;;;;8.07;2.70;;;;;;;32.03;30.91;99318.13;5072483;28;20390;-44
2022/09/11 08:23:39;;;;;;;10.00;3.00;;;;;;;32.21;31.26;99297.31;5072712;28;20103;-43
2022/09/11 08:26:04;;;;;;;7.57;2.78;;;;;;;32.18;31.52;99295.28;5072618;28;20048;-43
2022/09/11 08:28:30;;;;;;;3.85;2.42;;;;;;;32.40;31.06;99292.97;5072501;28;20177;-45
2022/09/11 08:30:57;;;;;;;6.82;2.78;;;;;;;32.08;31.91;99284.81;5072463;28;20119;-43
2022/09/11 08:33:23;;;;;;;8.15;2.90;;;;;;;33.06;30.61;99288.41;5065182;28;20020;-45
2022/09/11 08:35:49;;;;;;;5.00;3.00;;;;;;;32.47;30.71;99276.63;5052358;28;20127;-45
2022/09/11 08:38:14;;;;;;;9.65;3.15;;;;;;;32.49;30.87;99277.84;5051806;28;20029;-44
2022/09/11 08:40:40;;;;;;;6.53;3.17;;;;;;;32.33;30.94;99277.91;5036593;28;20101;-44
2022/09/11 08:43:14;;;;;;;4.97;2.70;;;;;;;32.82;31.08;99273.00;5032525;28;20115;-45
2022/09/11 08:45:39;;;;;;;3.85;2.80;;;;;;;33.04;30.27;99275.00;5037442;28;20033;-43
2022/09/11 08:48:08;;;;;;;5.45;3.00;;;;;;;33.57;29.46;99265.28;5052356;28;20085;-43
2022/09/11 08:50:42;;;;;;;4.32;2.75;;;;;;;33.35;29.26;99267.69;5053063;28;20163;-43
2022/09/11 08:53:16;;;;;;;5.07;2.95;;;;;;;32.76;30.98;99277.22;5052392;28;20075;-45
2022/09/11 08:56:16;;;;;;;6.47;2.85;;;;;;;33.15;30.06;99268.91;5052433;28;20021;-42
2022/09/11 08:58:54;;;;;;;5.35;2.90;;;;;;;34.12;28.79;99265.72;5040401;28;20033;-45
2022/09/11 09:01:39;;;;;;;4.40;2.55;;;;;;;34.41;28.48;99258.63;5048252;28;20501;-37
2022/09/11 09:04:04;;;;;;;4.75;2.80;;;;;;;33.62;29.16;99254.72;5051613;28;20021;-47
2022/09/11 09:06:54;;;;;;;4.63;2.90;;;;;;;33.22;29.71;99247.75;5052627;28;20119;-37
2022/09/11 09:09:34;;;;;;;4.80;2.60;;;;;;;32.77;30.04;99248.50;5052583;28;20027;-44
2022/09/11 09:12:31;;;;;;;5.28;2.60;;;;;;;32.47;29.90;99233.34;5052692;28;20025;-44
2022/09/11 09:15:16;;;;;;;3.72;2.65;;;;;;;33.00;29.47;99238.31;5015027;28;20038;-46
2022/09/11 09:18:25;;;;;;;4.13;2.85;;;;;;;32.86;30.00;99238.88;5030882;28;20536;-44
2022/09/11 09:21:09;;;;;;;5.07;2.50;;;;;;;33.18;29.14;99235.88;5010816;28;20026;-44
2022/09/11 09:23:41;;;;;;;2.47;2.20;;;;;;;33.71;28.70;99228.88;5031894;28;20053;-43
2022/09/11 09:26:16;;;;;;;5.70;2.72;;;;;;;33.83;28.67;99223.94;5032242;28;20134;-44
2022/09/11 09:28:46;;;;;;;3.33;2.70;;;;;;;34.18;28.65;99233.88;5032039;28;20477;-48
2022/09/11 09:31:16;;;;;;;4.68;2.80;;;;;;;33.46;28.20;99232.03;5032070;28;20457;-42
2022/09/11 09:33:44;;;;;;;3.40;2.58;;;;;;;33.35;28.25;99229.06;5031559;28;20093;-43
2022/09/11 09:36:13;;;;;;;4.00;2.50;;;;;;;33.50;28.14;99225.38;5031711;28;20028;-43
2022/09/11 09:38:38;;;;;;;6.57;2.88;;;;;;;33.10;28.38;99217.63;5031739;28;20102;-43
2022/09/11 09:41:06;;;;;;;5.25;2.75;;;;;;;33.53;27.92;99218.34;5032087;28;20080;-44
2022/09/11 09:44:14;;;;;;;4.80;2.72;;;;;;;34.25;27.65;99214.66;5031407;28;20029;-44
2022/09/11 09:46:47;;;;;;;6.10;3.15;;;;;;;33.33;28.74;99216.84;5028720;28;20091;-43
2022/09/11 09:49:28;;;;;;;4.63;2.80;;;;;;;33.67;28.40;99215.03;5032129;28;20064;-43
2022/09/11 09:51:55;;;;;;;3.70;3.00;;;;;;;33.98;28.23;99211.09;5031515;28;20381;-44
2022/09/11 09:54:25;;;;;;;4.78;2.80;;;;;;;33.94;28.22;99212.25;5029959;28;20025;-44
2022/09/11 09:57:10;;;;;;;3.33;2.80;;;;;;;33.98;27.14;99211.09;5028952;28;20071;-42
2022/09/11 09:59:50;;;;;;;4.57;2.90;;;;;;;33.30;28.25;99199.88;5030616;28;20376;-42
2022/09/11 10:02:38;;;;;;;5.40;2.70;;;;;;;33.76;27.65;99201.75;5048725;28;20032;-42
2022/09/11 10:05:15;;;;;;;3.10;2.80;;;;;;;33.76;27.66;99193.50;5042754;28;20031;-45
2022/09/11 10:08:02;;;;;;;5.18;3.00;;;;;;;33.76;27.80;99185.22;5040268;28;20021;-45
2022/09/11 10:10:35;;;;;;;4.60;3.00;;;;;;;34.09;27.51;99189.97;5050459;28;20481;-46
2022/09/11 10:13:23;;;;;;;7.95;2.80;;;;;;;33.57;27.69;99180.59;5050083;28;20021;-44
2022/09/11 10:15:50;;;;;;;6.50;3.00;;;;;;;32.78;28.32;99184.78;5050657;28;20028;-43
2022/09/11 10:18:22;;;;;;;4.10;2.70;;;;;;;33.18;27.86;99183.53;5050249;28;20424;-43
2022/09/11 10:20:47;;;;;;;3.65;2.50;;;;;;;33.88;27.31;99179.44;5050706;28;20063;-44
2022/09/11 10:23:24;;;;;;;4.05;2.95;;;;;;;33.35;28.37;99184.97;5050702;28;20100;-45
2022/09/11 10:25:50;;;;;;;3.97;2.80;;;;;;;33.91;27.67;99182.63;5050300;28;20020;-44
2022/09/11 10:28:25;;;;;;;4.60;2.80;;;;;;;34.24;26.99;99187.41;5050254;28;20017;-47
2022/09/11 10:30:52;;;;;;;2.50;2.20;;;;;;;33.81;27.09;99184.06;5050251;28;20105;-44
2022/09/11 10:33:32;;;;;;;5.25;2.60;;;;;;;33.92;27.27;99182.25;5049924;28;20025;-44
2022/09/11 10:36:02;;;;;;;4.70;2.80;;;;;;;33.59;27.74;99167.22;5049839;28;20038;-43
2022/09/11 10:38:45;;;;;;;5.50;3.03;;;;;;;34.15;27.04;99168.34;5049818;28;20064;-44
2022/09/11 10:41:13;;;;;;;4.32;2.80;;;;;;;34.51;27.22;99166.00;5030233;28;20508;-43
2022/09/11 10:43:48;;;;;;;;;;;;;;;34.20;26.80;99168.06;5030905;28;20017;-42
2022/09/11 10:46:24;;;;;;;4.10;2.60;;;;;;;33.93;26.77;99161.78;5030505;28;19913;-43
2022/09/11 10:48:54;;;;;;;2.92;2.33;;;;;;;34.07;26.22;99153.66;5030022;28;20032;-43
2022/09/11 10:51:22;;;;;;;2.92;2.40;;;;;;;34.19;25.82;99151.88;5030019;28;20027;-45
2022/09/11 10:54:12;;;;;;;3.50;2.13;;;;;;;34.19;25.89;99141.59;5030047;28;20021;-44
2022/09/11 10:56:49;;;;;;;7.03;2.22;;;;;;;34.20;24.94;99153.47;5030335;28;20026;-43
2022/09/11 10:59:21;;;;;;;7.03;2.00;;;;;;;33.84;25.19;99156.53;5030137;28;20507;-45
2022/09/11 11:01:47;;;;;;;6.05;2.20;;;;;;;33.75;25.40;99142.22;5043383;28;20558;-43
2022/09/11 11:04:13;;;;;;;5.05;3.45;;;;;;;33.95;24.69;99147.59;5049637;28;20485;-45
2022/09/11 11:06:50;;;;;;;3.88;2.95;;;;;;;33.81;24.83;99142.69;5049920;28;20086;-45
2022/09/11 11:09:44;;;;;;;10.13;2.40;;;;;;;33.81;24.82;99137.19;5050145;28;20135;-43
2022/09/11 11:12:33;;;;;;;3.78;2.00;;;;;;;33.81;24.87;99157.28;5053496;28;20082;-45
2022/09/11 11:15:23;;;;;;;3.53;2.03;;;;;;;33.98;24.96;99149.63;5054713;28;20111;-45
2022/09/11 11:18:04;;;;;;;5.45;2.42;;;;;;;34.38;24.83;99157.19;5053937;28;20519;-47
2022/09/11 11:20:57;;;;;;;4.65;1.80;;;;;;;34.47;23.35;99148.63;5054014;28;20127;-44
2022/09/11 11:23:32;;;;;;;4.32;1.90;;;;;;;34.79;23.71;99140.66;5053681;28;20564;-46
2022/09/11 11:26:09;;;;;;;4.80;2.08;;;;;;;34.55;24.25;99143.97;5053685;28;20025;-45
2022/09/11 11:28:49;;;;;;;6.45;2.10;;;;;;;34.45;24.31;99137.94;5053842;28;20021;-44
2022/09/11 11:31:34;;;;;;;3.05;1.73;;;;;;;34.30;23.79;99136.22;5053799;28;20020;-44
2022/09/11 11:34:24;;;;;;;2.83;2.00;;;;;;;34.17;23.86;99137.66;5053703;28;20112;-47
2022/09/11 11:37:05;;;;;;;5.47;1.88;;;;;;;34.96;23.89;99130.94;5053756;28;20021;-46
2022/09/11 11:39:41;;;;;;;2.88;1.90;;;;;;;35.16;23.20;99125.16;5053343;28;20479;-46
2022/09/11 11:42:16;;;;;;;4.95;2.00;;;;;;;34.57;23.39;99123.06;5052047;28;20047;-46
2022/09/11 11:44:53;;;;;;;4.57;1.90;;;;;;;34.08;24.03;99118.56;5053362;28;20017;-43
2022/09/11 11:47:24;;;;;;;2.35;1.80;;;;;;;34.37;23.86;99113.41;5053557;28;20178;-44
2022/09/11 11:50:09;;;;;;;3.03;1.70;;;;;;;34.24;23.77;99110.91;5053736;28;20378;-43
2022/09/11 11:53:06;;;;;;;3.53;1.85;;;;;;;34.87;23.11;99097.31;5051807;28;20110;-44
2022/09/11 11:55:39;;;;;;;6.30;2.28;;;;;;;34.87;23.04;99088.22;5050978;28;20028;-44